createdAt,value
2023-01-30T00:01:45.149Z,0.75
2023-01-30T00:04:14.265Z,0.79
2023-01-30T00:06:42.414Z,0.92
2023-01-30T00:09:14.679Z,0.97
2023-01-30T00:11:42.444Z,1.01
2023-01-30T00:14:09.444Z,1.07
2023-01-30T00:16:36.337Z,1.00
2023-01-30T00:19:03.525Z,0.95
2023-01-30T00:21:30.367Z,1.07
2023-01-30T00:23:57.169Z,1.11
2023-01-30T00:26:23.997Z,1.12
2023-01-30T00:28:50.822Z,1.11
2023-01-30T00:31:17.731Z,1.08
2023-01-30T00:33:44.537Z,1.04
2023-01-30T00:36:11.560Z,1.05
2023-01-30T00:38:38.417Z,1.09
2023-01-30T00:41:05.345Z,1.11
2023-01-30T00:43:50.522Z,1.12
2023-01-30T00:46:52.770Z,1.09
2023-01-30T00:49:20.060Z,1.05
2023-01-30T00:51:47.025Z,1.01
2023-01-30T00:54:13.920Z,1.05
2023-01-30T00:56:40.829Z,1.04
2023-01-30T00:59:07.633Z,1.04
2023-01-30T01:01:34.452Z,1.04
2023-01-30T01:04:01.337Z,1.06
2023-01-30T01:06:28.153Z,1.02
2023-01-30T01:08:55.117Z,1.00
2023-01-30T01:11:24.729Z,1.02
2023-01-30T01:13:57.762Z,0.81
2023-01-30T01:16:25.353Z,1.00
2023-01-30T01:18:52.667Z,0.86
2023-01-30T01:21:20.815Z,1.00
2023-01-30T01:23:56.450Z,1.00
2023-01-30T01:26:23.640Z,0.87
2023-01-30T01:28:54.721Z,0.95
2023-01-30T01:31:22.164Z,1.01
2023-01-30T01:33:49.080Z,0.98
2023-01-30T01:36:29.284Z,0.94
2023-01-30T01:39:03.537Z,1.08
2023-01-30T01:41:30.681Z,1.06
2023-01-30T01:44:17.238Z,1.04
2023-01-30T01:46:58.238Z,1.12
2023-01-30T01:49:29.675Z,1.09
2023-01-30T01:52:08.254Z,1.06
2023-01-30T01:54:48.237Z,0.93
2023-01-30T01:57:27.450Z,0.94
2023-01-30T02:00:19.835Z,1.11
2023-01-30T02:02:57.354Z,1.15
2023-01-30T02:05:32.202Z,1.20
2023-01-30T02:08:19.945Z,1.23
2023-01-30T02:11:09.860Z,1.25
2023-01-30T02:13:37.004Z,1.23
2023-01-30T02:16:07.160Z,1.18
2023-01-30T02:18:37.476Z,0.82
2023-01-30T02:21:28.794Z,1.23
2023-01-30T02:24:17.055Z,1.26
2023-01-30T02:26:59.933Z,1.26
2023-01-30T02:30:20.926Z,1.17
2023-01-30T02:32:59.420Z,1.26
2023-01-30T02:35:52.788Z,1.28
2023-01-30T02:38:41.120Z,1.16
2023-01-30T02:41:25.662Z,1.25
2023-01-30T02:44:44.694Z,1.23
2023-01-30T02:47:21.387Z,1.25
2023-01-30T02:49:56.123Z,1.21
2023-01-30T02:52:24.075Z,1.23
2023-01-30T02:54:50.871Z,1.16
2023-01-30T02:57:24.487Z,1.16
2023-01-30T03:00:04.087Z,1.18
2023-01-30T03:03:27.013Z,1.19
2023-01-30T03:06:27.663Z,1.18
2023-01-30T03:09:12.937Z,1.17
2023-01-30T03:12:02.321Z,1.10
2023-01-30T03:15:00.258Z,1.00
2023-01-30T03:17:28.583Z,0.86
2023-01-30T03:19:56.629Z,0.92
2023-01-30T03:22:23.465Z,1.01
2023-01-30T03:24:53.593Z,1.05
2023-01-30T03:27:22.172Z,1.07
2023-01-30T03:29:49.161Z,0.78
2023-01-30T03:32:15.985Z,0.82
2023-01-30T03:34:42.820Z,0.98
2023-01-30T03:37:09.725Z,0.99
2023-01-30T03:39:36.773Z,0.79
2023-01-30T03:42:03.954Z,0.97
2023-01-30T03:44:30.754Z,1.01
2023-01-30T03:46:57.618Z,0.98
2023-01-30T03:49:24.459Z,1.01
2023-01-30T03:51:51.300Z,1.06
2023-01-30T03:54:18.210Z,1.07
2023-01-30T03:56:45.126Z,1.17
2023-01-30T03:59:12.154Z,1.25
2023-01-30T04:01:39.031Z,1.30
2023-01-30T04:04:05.973Z,1.34
2023-01-30T04:06:32.783Z,1.37
2023-01-30T04:08:59.716Z,1.40
2023-01-30T04:11:26.507Z,1.42
2023-01-30T04:13:53.361Z,1.47
2023-01-30T04:16:24.712Z,1.49
2023-01-30T04:18:52.197Z,1.17
2023-01-30T04:21:19.510Z,1.45
2023-01-30T04:23:46.322Z,1.54
2023-01-30T04:26:13.930Z,1.54
2023-01-30T04:28:41.099Z,1.57
2023-01-30T04:31:08.334Z,1.60
2023-01-30T04:33:35.467Z,1.59
2023-01-30T04:36:04.769Z,1.50
2023-01-30T04:38:32.559Z,1.68
2023-01-30T04:40:59.651Z,1.78
2023-01-30T04:43:28.278Z,1.80
2023-01-30T04:45:55.613Z,1.53
2023-01-30T04:48:24.555Z,1.68
2023-01-30T04:50:54.767Z,1.45
2023-01-30T04:53:22.615Z,1.55
2023-01-30T04:55:49.851Z,1.72
2023-01-30T04:58:19.432Z,1.73
2023-01-30T05:00:47.390Z,1.89
2023-01-30T05:03:15.426Z,1.96
2023-01-30T05:05:42.280Z,2.04
2023-01-30T05:08:09.442Z,1.97
2023-01-30T05:10:36.245Z,2.05
2023-01-30T05:13:06.311Z,1.98
2023-01-30T05:15:33.628Z,1.96
2023-01-30T05:18:00.986Z,1.94
2023-01-30T05:20:27.950Z,2.04
2023-01-30T05:22:54.786Z,1.93
2023-01-30T05:25:21.753Z,1.99
2023-01-30T05:27:48.661Z,2.14
2023-01-30T05:30:15.612Z,2.02
2023-01-30T05:32:42.462Z,1.90
2023-01-30T05:35:09.588Z,1.93
2023-01-30T05:37:37.866Z,2.04
2023-01-30T05:40:05.993Z,2.00
2023-01-30T05:42:33.369Z,1.58
2023-01-30T05:45:00.297Z,1.81
2023-01-30T05:47:27.284Z,1.79
2023-01-30T05:49:54.143Z,1.66
2023-01-30T05:52:20.971Z,1.70
2023-01-30T05:54:47.853Z,1.79
2023-01-30T05:57:14.651Z,1.69
2023-01-30T05:59:41.581Z,1.79
2023-01-30T06:02:09.228Z,1.80
2023-01-30T06:04:37.293Z,1.72
2023-01-30T06:07:04.100Z,1.88
2023-01-30T06:09:30.890Z,1.83
2023-01-30T06:11:57.706Z,2.03
2023-01-30T06:14:24.545Z,2.23
2023-01-30T06:16:51.411Z,2.29
2023-01-30T06:19:18.304Z,2.31
2023-01-30T06:21:45.127Z,2.40
2023-01-30T06:24:11.937Z,2.38
2023-01-30T06:26:38.724Z,2.34
2023-01-30T06:29:05.552Z,2.46
2023-01-30T06:31:32.480Z,2.53
2023-01-30T06:33:59.323Z,2.37
2023-01-30T06:36:26.085Z,2.40
2023-01-30T06:38:52.971Z,2.48
2023-01-30T06:41:20.022Z,2.50
2023-01-30T06:43:46.864Z,2.32
2023-01-30T06:46:13.784Z,2.15
2023-01-30T06:48:40.652Z,2.20
2023-01-30T06:51:07.475Z,2.16
2023-01-30T06:53:34.323Z,2.19
2023-01-30T06:56:02.040Z,2.17
2023-01-30T06:58:29.090Z,2.24
2023-01-30T07:00:56.495Z,2.23
2023-01-30T07:03:23.789Z,2.36
2023-01-30T07:05:50.642Z,2.49
2023-01-30T07:08:17.543Z,2.58
2023-01-30T07:10:45.450Z,2.66
2023-01-30T07:13:12.617Z,2.56
2023-01-30T07:15:39.668Z,2.78
2023-01-30T07:18:06.470Z,2.69
2023-01-30T07:20:33.449Z,2.72
2023-01-30T07:23:00.639Z,2.77
2023-01-30T07:25:29.364Z,2.81
2023-01-30T07:28:01.742Z,2.73
2023-01-30T07:30:31.528Z,2.81
2023-01-30T07:32:59.939Z,2.89
2023-01-30T07:35:29.374Z,2.87
2023-01-30T07:37:56.544Z,2.84
2023-01-30T07:40:24.171Z,2.74
2023-01-30T07:43:05.977Z,2.66
2023-01-30T07:45:47.670Z,2.92
2023-01-30T07:48:18.605Z,2.86
2023-01-30T07:50:46.687Z,2.80
2023-01-30T07:53:16.125Z,2.86
2023-01-30T07:55:43.170Z,2.81
2023-01-30T07:58:14.717Z,2.75
2023-01-30T08:00:41.592Z,2.82
2023-01-30T08:03:14.296Z,2.87
2023-01-30T08:05:41.224Z,2.69
2023-01-30T08:08:08.122Z,2.68
2023-01-30T08:10:34.920Z,2.77
2023-01-30T08:13:01.839Z,2.75
2023-01-30T08:15:33.449Z,2.90
2023-01-30T08:18:00.639Z,2.78
2023-01-30T08:20:28.496Z,2.90
2023-01-30T08:22:55.778Z,2.56
2023-01-30T08:25:23.050Z,2.94
2023-01-30T08:27:50.491Z,2.88
2023-01-30T08:30:18.937Z,2.86
2023-01-30T08:32:45.988Z,2.88
2023-01-30T08:35:13.173Z,2.89
2023-01-30T08:37:41.374Z,2.85
2023-01-30T08:40:09.620Z,2.71
2023-01-30T08:42:36.499Z,2.94
2023-01-30T08:45:03.740Z,2.89
2023-01-30T08:47:31.184Z,2.89
2023-01-30T08:49:58.024Z,2.89
2023-01-30T08:52:24.799Z,2.99
2023-01-30T08:54:53.210Z,3.00
2023-01-30T08:57:20.718Z,2.92
2023-01-30T08:59:47.676Z,2.98
2023-01-30T09:02:14.541Z,2.94
2023-01-30T09:04:41.350Z,3.06
2023-01-30T09:07:08.681Z,3.13
2023-01-30T09:09:35.883Z,3.17
2023-01-30T09:12:02.689Z,3.22
2023-01-30T09:14:29.563Z,3.25
2023-01-30T09:16:56.531Z,3.25
2023-01-30T09:19:25.992Z,3.32
2023-01-30T09:21:53.678Z,3.37
2023-01-30T09:24:26.181Z,3.40
2023-01-30T09:26:54.553Z,3.46
2023-01-30T09:29:21.458Z,3.36
2023-01-30T09:31:48.311Z,2.84
2023-01-30T09:34:15.411Z,3.34
2023-01-30T09:36:42.886Z,3.29
2023-01-30T09:39:10.179Z,3.37
2023-01-30T09:41:55.399Z,3.37
2023-01-30T09:45:11.343Z,3.53
2023-01-30T09:47:51.836Z,3.51
2023-01-30T09:50:46.804Z,3.47
2023-01-30T09:53:31.983Z,3.45
2023-01-30T09:55:59.746Z,3.51
2023-01-30T09:58:57.048Z,3.55
2023-01-30T10:01:51.607Z,3.59
2023-01-30T10:04:39.044Z,3.58
2023-01-30T10:07:13.308Z,3.64
2023-01-30T10:10:03.615Z,3.67
2023-01-30T10:13:03.526Z,3.70
2023-01-30T10:16:10.342Z,3.70
2023-01-30T10:18:48.237Z,3.67
2023-01-30T10:21:24.983Z,3.73
2023-01-30T10:24:25.451Z,3.77
2023-01-30T10:26:53.115Z,3.87
2023-01-30T10:29:37.926Z,3.89
2023-01-30T10:32:27.017Z,3.91
2023-01-30T10:35:00.599Z,3.92
2023-01-30T10:37:38.874Z,3.86
2023-01-30T10:40:26.802Z,3.99
2023-01-30T10:43:40.105Z,4.03
2023-01-30T10:46:51.551Z,4.12
2023-01-30T10:49:30.463Z,4.19
2023-01-30T10:52:31.248Z,4.18
2023-01-30T10:55:38.027Z,4.34
2023-01-30T10:58:26.487Z,4.33
2023-01-30T11:01:04.218Z,4.42
2023-01-30T11:03:42.463Z,4.52
2023-01-30T11:06:17.762Z,4.49
2023-01-30T11:08:45.211Z,4.47
2023-01-30T11:11:47.683Z,4.46
2023-01-30T11:14:14.527Z,4.58
2023-01-30T11:16:55.364Z,4.57
2023-01-30T11:19:33.634Z,4.61
2023-01-30T11:22:05.939Z,4.56
2023-01-30T11:24:40.375Z,4.43
2023-01-30T11:27:27.896Z,4.54
2023-01-30T11:30:09.946Z,4.55
2023-01-30T11:32:37.178Z,4.65
2023-01-30T11:35:06.997Z,4.65
2023-01-30T11:37:38.932Z,4.67
2023-01-30T11:40:23.786Z,4.70
2023-01-30T11:43:13.886Z,4.66
2023-01-30T11:45:49.268Z,4.61
2023-01-30T11:48:33.097Z,4.82
2023-01-30T11:51:12.863Z,4.79
2023-01-30T11:53:49.699Z,4.85
2023-01-30T11:56:27.237Z,4.62
2023-01-30T11:59:07.597Z,4.82
2023-01-30T12:01:36.784Z,4.79
2023-01-30T12:04:12.004Z,4.83
2023-01-30T12:06:42.811Z,4.88
2023-01-30T12:09:32.566Z,4.89
2023-01-30T12:11:59.433Z,4.81
2023-01-30T12:14:41.874Z,4.84
2023-01-30T12:17:21.281Z,4.78
2023-01-30T12:20:14.819Z,4.68
2023-01-30T12:23:00.205Z,4.77
2023-01-30T12:25:35.765Z,4.63
2023-01-30T12:28:12.617Z,4.76
2023-01-30T12:31:01.856Z,4.57
2023-01-30T12:33:32.984Z,4.60
2023-01-30T12:36:13.775Z,4.52
2023-01-30T12:38:57.923Z,4.52
2023-01-30T12:41:55.417Z,4.51
2023-01-30T12:44:53.698Z,4.54
2023-01-30T12:48:01.088Z,4.51
2023-01-30T12:50:48.307Z,4.57
2023-01-30T12:53:27.112Z,4.61
2023-01-30T12:56:35.563Z,4.56
2023-01-30T12:59:24.360Z,4.48
2023-01-30T13:02:31.496Z,4.43
2023-01-30T13:05:11.192Z,4.43
2023-01-30T13:08:00.208Z,4.45
2023-01-30T13:10:52.319Z,4.43
2023-01-30T13:13:43.940Z,4.42
2023-01-30T13:17:09.336Z,4.46
2023-01-30T13:20:02.492Z,4.47
2023-01-30T13:22:56.290Z,4.51
2023-01-30T13:26:05.375Z,4.41
2023-01-30T13:29:21.052Z,4.42
2023-01-30T13:31:59.375Z,4.27
2023-01-30T13:34:45.652Z,4.44
2023-01-30T13:37:18.420Z,4.32
2023-01-30T13:40:15.899Z,4.36
2023-01-30T13:43:02.386Z,4.46
2023-01-30T13:45:36.831Z,4.35
2023-01-30T13:48:33.633Z,4.20
2023-01-30T13:51:38.671Z,4.35
2023-01-30T13:54:46.645Z,4.24
2023-01-30T13:57:40.637Z,4.37
2023-01-30T14:00:30.217Z,4.42
2023-01-30T14:03:06.547Z,4.33
2023-01-30T14:05:51.725Z,4.34
2023-01-30T14:08:48.951Z,4.39
2023-01-30T14:11:43.037Z,4.30
2023-01-30T14:14:15.911Z,4.38
2023-01-30T14:16:52.812Z,4.22
2023-01-30T14:19:41.090Z,4.36
2023-01-30T14:22:20.337Z,4.26
2023-01-30T14:25:25.254Z,4.41
2023-01-30T14:27:54.005Z,4.37
2023-01-30T14:30:59.148Z,4.38
2023-01-30T14:33:26.015Z,4.42
2023-01-30T14:35:58.995Z,4.40
2023-01-30T14:38:27.996Z,4.39
2023-01-30T14:41:00.766Z,4.41
2023-01-30T14:43:42.660Z,4.44
2023-01-30T14:46:18.284Z,4.42
2023-01-30T14:48:50.834Z,4.48
2023-01-30T14:51:43.405Z,4.38
2023-01-30T14:54:13.912Z,4.31
2023-01-30T14:57:05.675Z,4.33
2023-01-30T14:59:59.741Z,4.46
2023-01-30T15:02:44.208Z,4.40
2023-01-30T15:05:27.685Z,4.40
2023-01-30T15:08:10.677Z,4.45
2023-01-30T15:11:04.800Z,4.44
2023-01-30T15:13:55.861Z,4.37
2023-01-30T15:16:43.111Z,4.53
2023-01-30T15:19:49.560Z,4.57
2023-01-30T15:22:42.807Z,4.63
2023-01-30T15:25:43.702Z,4.67
2023-01-30T15:28:36.062Z,4.70
2023-01-30T15:31:18.707Z,4.68
2023-01-30T15:33:51.773Z,4.77
2023-01-30T15:36:32.150Z,4.80
2023-01-30T15:39:06.600Z,4.81
2023-01-30T15:41:40.597Z,4.83
2023-01-30T15:44:36.491Z,4.83
2023-01-30T15:47:21.317Z,4.80
2023-01-30T15:50:05.284Z,4.82
2023-01-30T15:52:49.632Z,4.82
2023-01-30T15:55:27.211Z,4.80
2023-01-30T15:58:04.190Z,4.76
2023-01-30T16:00:40.350Z,4.78
2023-01-30T16:03:14.691Z,4.87
2023-01-30T16:05:55.352Z,4.94
2023-01-30T16:08:33.580Z,4.90
2023-01-30T16:11:01.222Z,4.80
2023-01-30T16:13:29.206Z,4.75
2023-01-30T16:16:25.942Z,4.79
2023-01-30T16:19:01.825Z,4.82
2023-01-30T16:21:35.876Z,4.78
2023-01-30T16:24:17.988Z,4.86
2023-01-30T16:27:01.082Z,4.90
2023-01-30T16:29:31.658Z,4.90
2023-01-30T16:31:58.928Z,5.00
2023-01-30T16:34:36.021Z,4.95
2023-01-30T16:37:16.513Z,5.13
2023-01-30T16:39:45.658Z,5.05
2023-01-30T16:42:28.080Z,5.12
2023-01-30T16:45:49.544Z,5.15
2023-01-30T16:48:25.440Z,5.07
2023-01-30T16:51:01.301Z,5.10
2023-01-30T16:53:31.109Z,5.15
2023-01-30T16:56:09.814Z,5.08
2023-01-30T16:58:38.869Z,5.04
2023-01-30T17:01:08.466Z,5.15
2023-01-30T17:03:39.178Z,5.10
2023-01-30T17:06:16.111Z,5.03
2023-01-30T17:08:55.148Z,5.09
2023-01-30T17:11:36.336Z,5.04
2023-01-30T17:14:21.118Z,5.02
2023-01-30T17:17:12.321Z,4.82
2023-01-30T17:19:39.236Z,4.93
2023-01-30T17:22:17.806Z,4.84
2023-01-30T17:24:44.628Z,4.99
2023-01-30T17:27:11.427Z,4.92
2023-01-30T17:29:43.163Z,4.94
2023-01-30T17:32:14.060Z,4.95
2023-01-30T17:36:24.615Z,4.89
2023-01-30T17:37:27.923Z,4.71
2023-01-30T17:39:54.763Z,4.89
2023-01-30T17:42:22.235Z,5.00
2023-01-30T17:44:49.336Z,5.09
2023-01-30T17:47:16.250Z,5.04
2023-01-30T17:49:43.055Z,5.07
2023-01-30T17:52:13.257Z,5.17
2023-01-30T17:54:40.939Z,5.21
2023-01-30T17:57:10.344Z,4.78
2023-01-30T17:59:37.166Z,5.09
2023-01-30T18:02:04.179Z,5.14
2023-01-30T18:04:31.011Z,5.05
2023-01-30T18:07:04.480Z,5.09
2023-01-30T18:09:31.928Z,4.91
2023-01-30T18:11:58.803Z,4.87
2023-01-30T18:14:25.631Z,5.10
2023-01-30T18:16:52.566Z,5.14
2023-01-30T18:19:23.867Z,5.12
2023-01-30T18:21:51.072Z,5.03
2023-01-30T18:24:18.492Z,5.10
2023-01-30T18:26:46.289Z,4.98
2023-01-30T18:29:13.557Z,4.85
2023-01-30T18:31:40.916Z,5.04
2023-01-30T18:34:09.599Z,5.03
2023-01-30T18:36:36.702Z,4.92
2023-01-30T18:39:04.749Z,4.95
2023-01-30T18:41:32.041Z,4.85
2023-01-30T18:44:01.924Z,4.87
2023-01-30T18:46:29.656Z,4.74
2023-01-30T18:48:57.290Z,4.77
2023-01-30T18:51:27.714Z,4.76
2023-01-30T18:53:55.751Z,4.76
2023-01-30T18:56:32.604Z,4.76
2023-01-30T18:59:05.459Z,4.83
2023-01-30T19:01:38.755Z,4.82
2023-01-30T19:04:09.077Z,4.77
2023-01-30T19:06:42.242Z,4.80
2023-01-30T19:09:13.689Z,4.79
2023-01-30T19:11:59.460Z,4.65
2023-01-30T19:14:27.428Z,4.78
2023-01-30T19:16:54.599Z,4.80
2023-01-30T19:19:21.938Z,4.72
2023-01-30T19:21:50.534Z,4.71
2023-01-30T19:24:17.417Z,4.84
2023-01-30T19:26:45.312Z,4.85
2023-01-30T19:29:12.204Z,4.82
2023-01-30T19:31:39.172Z,4.95
2023-01-30T19:34:06.343Z,5.00
2023-01-30T19:36:35.035Z,5.00
2023-01-30T19:39:03.748Z,4.90
2023-01-30T19:41:34.777Z,4.75
2023-01-30T19:44:04.160Z,4.79
2023-01-30T19:46:31.610Z,4.69
2023-01-30T19:48:58.684Z,4.62
2023-01-30T19:51:29.581Z,4.75
2023-01-30T19:54:05.419Z,4.71
2023-01-30T19:56:33.297Z,4.66
2023-01-30T19:59:01.609Z,4.72
2023-01-30T20:01:32.802Z,4.73
2023-01-30T20:04:01.273Z,4.79
2023-01-30T20:06:31.750Z,4.59
2023-01-30T20:09:08.389Z,4.83
2023-01-30T20:11:37.139Z,4.75
2023-01-30T20:14:06.035Z,4.83
2023-01-30T20:16:35.563Z,4.85
2023-01-30T20:19:06.417Z,4.73
2023-01-30T20:21:34.102Z,4.72
2023-01-30T20:24:01.775Z,4.72
2023-01-30T20:26:35.077Z,4.71
2023-01-30T20:29:03.979Z,4.73
2023-01-30T20:31:31.833Z,4.80
2023-01-30T20:34:02.493Z,4.89
2023-01-30T20:36:29.550Z,4.94
2023-01-30T20:39:01.857Z,4.94
2023-01-30T20:41:28.933Z,4.92
2023-01-30T20:43:57.418Z,4.96
2023-01-30T20:46:39.591Z,5.03
2023-01-30T20:49:10.057Z,5.05
2023-01-30T20:51:37.194Z,4.99
2023-01-30T20:54:08.009Z,4.96
2023-01-30T20:56:45.502Z,4.95
2023-01-30T20:59:15.849Z,4.86
2023-01-30T21:01:43.928Z,5.03
2023-01-30T21:04:14.384Z,4.84
2023-01-30T21:06:45.765Z,4.92
2023-01-30T21:09:22.640Z,4.91
2023-01-30T21:11:52.658Z,4.94
2023-01-30T21:14:19.714Z,4.93
2023-01-30T21:16:47.221Z,4.88
2023-01-30T21:19:17.381Z,4.90
2023-01-30T21:21:54.971Z,4.96
2023-01-30T21:24:26.010Z,5.00
2023-01-30T21:26:53.501Z,4.97
2023-01-30T21:29:25.942Z,4.97
2023-01-30T21:31:53.365Z,4.99
2023-01-30T21:34:20.398Z,4.70
2023-01-30T21:37:05.815Z,4.99
2023-01-30T21:39:51.377Z,5.01
2023-01-30T21:42:37.065Z,5.08
2023-01-30T21:45:06.508Z,5.11
2023-01-30T21:47:33.312Z,5.10
2023-01-30T21:50:00.155Z,5.07
2023-01-30T21:52:26.946Z,5.03
2023-01-30T21:54:53.799Z,5.07
2023-01-30T21:57:20.595Z,5.11
2023-01-30T21:59:47.483Z,5.13
2023-01-30T22:02:14.321Z,5.11
2023-01-30T22:04:41.189Z,5.15
2023-01-30T22:07:08.014Z,5.13
2023-01-30T22:09:34.965Z,5.14
2023-01-30T22:12:02.230Z,5.14
2023-01-30T22:14:29.268Z,5.08
2023-01-30T22:16:56.137Z,5.08
2023-01-30T22:19:22.944Z,5.00
2023-01-30T22:21:49.748Z,5.03
2023-01-30T22:24:16.676Z,5.01
2023-01-30T22:26:43.649Z,5.00
2023-01-30T22:29:10.477Z,5.13
2023-01-30T22:31:40.499Z,5.10
2023-01-30T22:34:07.775Z,5.26
2023-01-30T22:36:35.288Z,5.32
2023-01-30T22:39:02.616Z,5.19
2023-01-30T22:41:34.628Z,5.22
2023-01-30T22:44:04.114Z,5.27
2023-01-30T22:46:34.872Z,5.31
2023-01-30T22:49:04.128Z,5.31
2023-01-30T22:51:34.374Z,5.16
2023-01-30T22:54:07.656Z,5.34
2023-01-30T22:56:40.952Z,5.39
2023-01-30T22:59:08.537Z,5.27
2023-01-30T23:01:39.377Z,5.23
2023-01-30T23:04:12.024Z,5.32
2023-01-30T23:06:39.734Z,5.16
2023-01-30T23:09:09.472Z,5.15
2023-01-30T23:11:41.707Z,5.33
2023-01-30T23:14:11.456Z,5.40
2023-01-30T23:16:40.633Z,5.42
2023-01-30T23:19:09.876Z,5.41
2023-01-30T23:21:46.755Z,5.49
2023-01-30T23:24:17.550Z,5.45
2023-01-30T23:26:48.574Z,5.48
2023-01-30T23:29:19.296Z,5.46
2023-01-30T23:31:47.736Z,5.50
2023-01-30T23:34:17.904Z,5.51
2023-01-30T23:36:46.244Z,5.46
2023-01-30T23:39:14.298Z,5.41
2023-01-30T23:41:42.379Z,5.36
2023-01-30T23:44:10.108Z,5.44
2023-01-30T23:46:40.658Z,5.38
2023-01-30T23:49:13.867Z,5.19
2023-01-30T23:51:44.238Z,5.14
2023-01-30T23:54:12.607Z,5.15
2023-01-30T23:56:43.181Z,5.22
2023-01-30T23:59:10.916Z,5.00
